sensor_id;sensor_type;location;lat;lon;timestamp;temperature;humidity
69331;DHT22;56475;52.114;5.480;2022-08-04T00:02:20;20.10;74.20
69331;DHT22;56475;52.114;5.480;2022-08-04T00:04:58;20.00;74.70
69331;DHT22;56475;52.114;5.480;2022-08-04T00:07:52;20.00;74.70
69331;DHT22;56475;52.114;5.480;2022-08-04T00:10:23;19.90;73.90
69331;DHT22;56475;52.114;5.480;2022-08-04T00:12:54;19.80;74.40
69331;DHT22;56475;52.114;5.480;2022-08-04T00:15:23;19.80;75.00
69331;DHT22;56475;52.114;5.480;2022-08-04T00:18:06;19.80;75.10
69331;DHT22;56475;52.114;5.480;2022-08-04T00:20:37;19.80;75.20
69331;DHT22;56475;52.114;5.480;2022-08-04T00:23:05;19.50;75.50
69331;DHT22;56475;52.114;5.480;2022-08-04T00:25:33;19.70;75.20
69331;DHT22;56475;52.114;5.480;2022-08-04T00:28:00;19.60;75.10
69331;DHT22;56475;52.114;5.480;2022-08-04T00:30:27;19.60;75.20
69331;DHT22;56475;52.114;5.480;2022-08-04T00:32:56;19.70;75.20
69331;DHT22;56475;52.114;5.480;2022-08-04T00:35:24;19.60;75.20
69331;DHT22;56475;52.114;5.480;2022-08-04T00:37:51;19.50;75.50
69331;DHT22;56475;52.114;5.480;2022-08-04T01:00:11;19.30;77.50
69331;DHT22;56475;52.114;5.480;2022-08-04T01:11:24;19.10;77.80
69331;DHT22;56475;52.114;5.480;2022-08-04T01:16:34;19.00;78.50
69331;DHT22;56475;52.114;5.480;2022-08-04T01:28:42;18.90;77.80
69331;DHT22;56475;52.114;5.480;2022-08-04T01:31:37;18.80;77.60
69331;DHT22;56475;52.114;5.480;2022-08-04T01:34:10;18.80;77.80
69331;DHT22;56475;52.114;5.480;2022-08-04T01:36:46;18.80;78.10
69331;DHT22;56475;52.114;5.480;2022-08-04T01:39:19;18.70;77.60
69331;DHT22;56475;52.114;5.480;2022-08-04T01:42:05;18.70;78.10
69331;DHT22;56475;52.114;5.480;2022-08-04T01:44:36;18.60;77.90
69331;DHT22;56475;52.114;5.480;2022-08-04T01:47:04;18.60;77.80
69331;DHT22;56475;52.114;5.480;2022-08-04T01:49:32;18.70;77.60
69331;DHT22;56475;52.114;5.480;2022-08-04T01:52:08;18.60;77.70
69331;DHT22;56475;52.114;5.480;2022-08-04T01:54:41;18.60;79.60
69331;DHT22;56475;52.114;5.480;2022-08-04T01:57:11;18.70;79.20
69331;DHT22;56475;52.114;5.480;2022-08-04T01:59:59;18.60;78.90
69331;DHT22;56475;52.114;5.480;2022-08-04T02:02:26;18.60;78.60
69331;DHT22;56475;52.114;5.480;2022-08-04T02:04:54;18.60;78.30
69331;DHT22;56475;52.114;5.480;2022-08-04T02:07:49;18.50;78.40
69331;DHT22;56475;52.114;5.480;2022-08-04T02:10:41;18.50;79.40
69331;DHT22;56475;52.114;5.480;2022-08-04T02:16:02;18.60;79.20
69331;DHT22;56475;52.114;5.480;2022-08-04T02:18:32;18.50;79.40
69331;DHT22;56475;52.114;5.480;2022-08-04T02:21:05;18.50;79.20
69331;DHT22;56475;52.114;5.480;2022-08-04T02:23:38;18.40;78.70
69331;DHT22;56475;52.114;5.480;2022-08-04T02:26:12;18.40;80.00
69331;DHT22;56475;52.114;5.480;2022-08-04T02:34:24;18.30;80.80
69331;DHT22;56475;52.114;5.480;2022-08-04T02:36:53;18.40;80.10
69331;DHT22;56475;52.114;5.480;2022-08-04T02:39:22;18.40;80.10
69331;DHT22;56475;52.114;5.480;2022-08-04T02:41:49;18.30;80.10
69331;DHT22;56475;52.114;5.480;2022-08-04T02:44:22;18.30;79.70
69331;DHT22;56475;52.114;5.480;2022-08-04T02:46:53;18.20;80.80
69331;DHT22;56475;52.114;5.480;2022-08-04T02:49:21;18.30;80.80
69331;DHT22;56475;52.114;5.480;2022-08-04T02:51:53;18.30;80.00
69331;DHT22;56475;52.114;5.480;2022-08-04T02:54:32;18.20;81.10
69331;DHT22;56475;52.114;5.480;2022-08-04T02:57:01;18.20;80.40
69331;DHT22;56475;52.114;5.480;2022-08-04T03:00:12;18.20;80.40
69331;DHT22;56475;52.114;5.480;2022-08-04T03:08:56;18.20;80.80
69331;DHT22;56475;52.114;5.480;2022-08-04T03:40:24;17.80;81.20
69331;DHT22;56475;52.114;5.480;2022-08-04T04:06:33;17.60;82.40
69331;DHT22;56475;52.114;5.480;2022-08-04T04:18:14;17.60;82.70
69331;DHT22;56475;52.114;5.480;2022-08-04T04:26:03;17.50;83.40
69331;DHT22;56475;52.114;5.480;2022-08-04T04:34:08;17.70;82.80
69331;DHT22;56475;52.114;5.480;2022-08-04T04:48:14;17.90;82.70
69331;DHT22;56475;52.114;5.480;2022-08-04T04:53:55;17.90;82.50
69331;DHT22;56475;52.114;5.480;2022-08-04T04:58:57;18.10;82.90
69331;DHT22;56475;52.114;5.480;2022-08-04T05:14:05;18.50;83.20
69331;DHT22;56475;52.114;5.480;2022-08-04T05:16:34;18.60;82.20
69331;DHT22;56475;52.114;5.480;2022-08-04T05:19:21;18.80;82.30
69331;DHT22;56475;52.114;5.480;2022-08-04T05:21:56;19.00;82.30
69331;DHT22;56475;52.114;5.480;2022-08-04T05:24:26;19.10;82.00
69331;DHT22;56475;52.114;5.480;2022-08-04T05:27:04;19.20;81.60
69331;DHT22;56475;52.114;5.480;2022-08-04T05:29:36;19.30;81.80
69331;DHT22;56475;52.114;5.480;2022-08-04T05:32:10;19.50;82.10
69331;DHT22;56475;52.114;5.480;2022-08-04T05:34:42;19.60;82.00
69331;DHT22;56475;52.114;5.480;2022-08-04T05:37:15;19.70;82.00
69331;DHT22;56475;52.114;5.480;2022-08-04T05:39:47;19.80;81.80
69331;DHT22;56475;52.114;5.480;2022-08-04T05:42:15;19.90;81.40
69331;DHT22;56475;52.114;5.480;2022-08-04T05:44:43;20.10;80.90
69331;DHT22;56475;52.114;5.480;2022-08-04T05:47:17;20.10;80.60
69331;DHT22;56475;52.114;5.480;2022-08-04T05:49:47;20.20;80.60
69331;DHT22;56475;52.114;5.480;2022-08-04T05:52:29;20.20;80.40
69331;DHT22;56475;52.114;5.480;2022-08-04T05:54:58;20.40;80.20
69331;DHT22;56475;52.114;5.480;2022-08-04T05:57:26;20.50;80.10
69331;DHT22;56475;52.114;5.480;2022-08-04T05:59:56;20.70;79.80
69331;DHT22;56475;52.114;5.480;2022-08-04T06:02:24;20.80;79.70
69331;DHT22;56475;52.114;5.480;2022-08-04T06:04:54;20.80;79.20
69331;DHT22;56475;52.114;5.480;2022-08-04T06:07:21;21.00;79.30
69331;DHT22;56475;52.114;5.480;2022-08-04T06:09:49;21.00;79.00
69331;DHT22;56475;52.114;5.480;2022-08-04T06:12:25;21.20;78.90
69331;DHT22;56475;52.114;5.480;2022-08-04T06:14:56;21.40;78.60
69331;DHT22;56475;52.114;5.480;2022-08-04T06:17:31;21.40;78.70
69331;DHT22;56475;52.114;5.480;2022-08-04T06:20:19;21.70;78.40
69331;DHT22;56475;52.114;5.480;2022-08-04T06:22:52;21.60;77.90
69331;DHT22;56475;52.114;5.480;2022-08-04T06:25:27;21.80;77.80
69331;DHT22;56475;52.114;5.480;2022-08-04T06:27:55;21.90;77.40
69331;DHT22;56475;52.114;5.480;2022-08-04T06:30:25;22.10;77.00
69331;DHT22;56475;52.114;5.480;2022-08-04T06:32:54;22.20;76.90
69331;DHT22;56475;52.114;5.480;2022-08-04T06:35:31;22.20;76.30
69331;DHT22;56475;52.114;5.480;2022-08-04T06:37:59;22.30;76.00
69331;DHT22;56475;52.114;5.480;2022-08-04T06:40:28;22.40;75.70
69331;DHT22;56475;52.114;5.480;2022-08-04T06:43:04;22.50;75.80
69331;DHT22;56475;52.114;5.480;2022-08-04T06:45:34;22.60;75.60
69331;DHT22;56475;52.114;5.480;2022-08-04T06:48:04;22.70;75.40
69331;DHT22;56475;52.114;5.480;2022-08-04T06:50:35;22.70;75.40
69331;DHT22;56475;52.114;5.480;2022-08-04T06:53:24;22.80;75.30
69331;DHT22;56475;52.114;5.480;2022-08-04T06:55:53;22.90;75.20
69331;DHT22;56475;52.114;5.480;2022-08-04T06:58:21;23.10;74.80
69331;DHT22;56475;52.114;5.480;2022-08-04T07:00:49;23.20;74.30
69331;DHT22;56475;52.114;5.480;2022-08-04T07:03:18;23.20;74.00
69331;DHT22;56475;52.114;5.480;2022-08-04T07:05:46;23.30;73.70
69331;DHT22;56475;52.114;5.480;2022-08-04T07:08:14;23.40;73.60
69331;DHT22;56475;52.114;5.480;2022-08-04T07:10:41;23.50;73.50
69331;DHT22;56475;52.114;5.480;2022-08-04T07:13:11;23.50;73.10
69331;DHT22;56475;52.114;5.480;2022-08-04T07:15:41;23.60;73.00
69331;DHT22;56475;52.114;5.480;2022-08-04T07:18:09;23.70;72.80
69331;DHT22;56475;52.114;5.480;2022-08-04T07:20:40;23.80;72.70
69331;DHT22;56475;52.114;5.480;2022-08-04T07:23:08;23.90;72.40
69331;DHT22;56475;52.114;5.480;2022-08-04T07:25:37;23.90;72.40
69331;DHT22;56475;52.114;5.480;2022-08-04T07:28:28;24.00;72.30
69331;DHT22;56475;52.114;5.480;2022-08-04T07:30:56;24.10;72.20
69331;DHT22;56475;52.114;5.480;2022-08-04T07:33:24;24.20;71.60
69331;DHT22;56475;52.114;5.480;2022-08-04T07:35:56;24.30;71.20
69331;DHT22;56475;52.114;5.480;2022-08-04T07:38:40;24.40;71.30
69331;DHT22;56475;52.114;5.480;2022-08-04T07:41:20;24.50;70.50
69331;DHT22;56475;52.114;5.480;2022-08-04T07:44:04;24.60;70.20
69331;DHT22;56475;52.114;5.480;2022-08-04T07:46:33;24.70;69.60
69331;DHT22;56475;52.114;5.480;2022-08-04T07:49:00;24.70;68.90
69331;DHT22;56475;52.114;5.480;2022-08-04T07:51:29;24.80;68.40
69331;DHT22;56475;52.114;5.480;2022-08-04T07:53:57;24.80;67.70
69331;DHT22;56475;52.114;5.480;2022-08-04T07:56:25;24.90;67.20
69331;DHT22;56475;52.114;5.480;2022-08-04T07:58:53;25.00;67.00
69331;DHT22;56475;52.114;5.480;2022-08-04T08:01:21;25.00;66.70
69331;DHT22;56475;52.114;5.480;2022-08-04T08:03:49;25.00;66.30
69331;DHT22;56475;52.114;5.480;2022-08-04T08:06:17;25.10;66.20
69331;DHT22;56475;52.114;5.480;2022-08-04T08:09:01;25.20;66.10
69331;DHT22;56475;52.114;5.480;2022-08-04T08:11:41;25.30;65.90
69331;DHT22;56475;52.114;5.480;2022-08-04T08:14:29;25.40;65.70
69331;DHT22;56475;52.114;5.480;2022-08-04T08:17:00;25.50;65.50
69331;DHT22;56475;52.114;5.480;2022-08-04T08:19:29;25.60;65.00
69331;DHT22;56475;52.114;5.480;2022-08-04T08:21:57;25.70;65.00
69331;DHT22;56475;52.114;5.480;2022-08-04T08:24:33;25.80;64.50
69331;DHT22;56475;52.114;5.480;2022-08-04T08:27:01;25.90;64.30
69331;DHT22;56475;52.114;5.480;2022-08-04T08:29:34;26.00;63.80
69331;DHT22;56475;52.114;5.480;2022-08-04T08:32:02;26.20;64.80
69331;DHT22;56475;52.114;5.480;2022-08-04T08:34:34;26.40;62.70
69331;DHT22;56475;52.114;5.480;2022-08-04T08:54:28;27.40;60.20
69331;DHT22;56475;52.114;5.480;2022-08-04T09:01:03;27.70;60.00
69331;DHT22;56475;52.114;5.480;2022-08-04T09:07:12;28.00;58.40
69331;DHT22;56475;52.114;5.480;2022-08-04T09:12:27;28.20;57.40
69331;DHT22;56475;52.114;5.480;2022-08-04T09:15:03;28.40;57.30
69331;DHT22;56475;52.114;5.480;2022-08-04T09:22:53;28.90;55.10
69331;DHT22;56475;52.114;5.480;2022-08-04T09:25:23;29.10;55.20
69331;DHT22;56475;52.114;5.480;2022-08-04T09:27:52;29.40;54.10
69331;DHT22;56475;52.114;5.480;2022-08-04T09:30:31;29.60;52.90
69331;DHT22;56475;52.114;5.480;2022-08-04T09:33:15;29.70;51.80
69331;DHT22;56475;52.114;5.480;2022-08-04T09:44:33;29.60;50.60
69331;DHT22;56475;52.114;5.480;2022-08-04T09:47:45;29.70;50.80
69331;DHT22;56475;52.114;5.480;2022-08-04T09:50:47;30.00;50.60
69331;DHT22;56475;52.114;5.480;2022-08-04T09:55:54;30.20;49.10
69331;DHT22;56475;52.114;5.480;2022-08-04T10:01:15;30.30;48.50
69331;DHT22;56475;52.114;5.480;2022-08-04T10:04:00;30.40;48.50
69331;DHT22;56475;52.114;5.480;2022-08-04T10:09:49;30.50;48.70
69331;DHT22;56475;52.114;5.480;2022-08-04T10:12:31;30.70;48.20
69331;DHT22;56475;52.114;5.480;2022-08-04T10:15:02;30.10;47.50
69331;DHT22;56475;52.114;5.480;2022-08-04T10:29:08;30.20;48.40
69331;DHT22;56475;52.114;5.480;2022-08-04T10:31:43;29.90;48.30
69331;DHT22;56475;52.114;5.480;2022-08-04T10:34:19;29.70;48.40
69331;DHT22;56475;52.114;5.480;2022-08-04T10:37:05;29.50;49.20
69331;DHT22;56475;52.114;5.480;2022-08-04T10:42:39;29.20;49.70
69331;DHT22;56475;52.114;5.480;2022-08-04T10:45:18;29.10;50.00
69331;DHT22;56475;52.114;5.480;2022-08-04T10:53:37;28.80;51.00
69331;DHT22;56475;52.114;5.480;2022-08-04T10:56:12;28.60;51.70
69331;DHT22;56475;52.114;5.480;2022-08-04T10:58:53;28.50;51.60
69331;DHT22;56475;52.114;5.480;2022-08-04T11:01:24;28.50;51.70
69331;DHT22;56475;52.114;5.480;2022-08-04T11:04:41;28.30;52.70
69331;DHT22;56475;52.114;5.480;2022-08-04T11:07:11;28.30;53.60
69331;DHT22;56475;52.114;5.480;2022-08-04T11:09:40;28.10;53.70
69331;DHT22;56475;52.114;5.480;2022-08-04T11:12:24;27.90;54.70
69331;DHT22;56475;52.114;5.480;2022-08-04T11:15:08;27.80;54.00
69331;DHT22;56475;52.114;5.480;2022-08-04T11:17:41;27.60;54.60
69331;DHT22;56475;52.114;5.480;2022-08-04T11:20:29;27.40;55.50
69331;DHT22;56475;52.114;5.480;2022-08-04T11:23:11;27.30;56.00
69331;DHT22;56475;52.114;5.480;2022-08-04T11:30:57;27.20;58.40
69331;DHT22;56475;52.114;5.480;2022-08-04T11:41:52;27.40;60.40
69331;DHT22;56475;52.114;5.480;2022-08-04T11:44:34;27.50;59.20
69331;DHT22;56475;52.114;5.480;2022-08-04T11:47:40;27.50;58.90
69331;DHT22;56475;52.114;5.480;2022-08-04T11:50:37;27.80;59.60
69331;DHT22;56475;52.114;5.480;2022-08-04T11:53:06;28.40;56.20
69331;DHT22;56475;52.114;5.480;2022-08-04T11:55:36;28.80;53.90
69331;DHT22;56475;52.114;5.480;2022-08-04T11:58:24;29.10;52.70
69331;DHT22;56475;52.114;5.480;2022-08-04T12:07:04;30.40;49.20
69331;DHT22;56475;52.114;5.480;2022-08-04T12:15:28;32.20;44.60
69331;DHT22;56475;52.114;5.480;2022-08-04T12:18:17;32.60;44.00
69331;DHT22;56475;52.114;5.480;2022-08-04T12:20:56;32.90;42.90
69331;DHT22;56475;52.114;5.480;2022-08-04T12:23:32;33.30;40.60
69331;DHT22;56475;52.114;5.480;2022-08-04T12:26:28;33.70;40.70
69331;DHT22;56475;52.114;5.480;2022-08-04T12:29:00;33.90;39.90
69331;DHT22;56475;52.114;5.480;2022-08-04T12:34:27;34.40;39.00
69331;DHT22;56475;52.114;5.480;2022-08-04T12:40:00;35.10;37.10
69331;DHT22;56475;52.114;5.480;2022-08-04T12:43:24;35.40;36.40
69331;DHT22;56475;52.114;5.480;2022-08-04T12:45:55;35.60;35.90
69331;DHT22;56475;52.114;5.480;2022-08-04T12:48:24;35.60;35.10
69331;DHT22;56475;52.114;5.480;2022-08-04T12:50:54;35.80;35.10
69331;DHT22;56475;52.114;5.480;2022-08-04T12:53:27;35.70;33.80
69331;DHT22;56475;52.114;5.480;2022-08-04T12:55:59;35.60;34.60
69331;DHT22;56475;52.114;5.480;2022-08-04T12:58:31;35.70;34.60
69331;DHT22;56475;52.114;5.480;2022-08-04T13:01:23;35.90;33.70
69331;DHT22;56475;52.114;5.480;2022-08-04T13:04:19;35.90;33.50
69331;DHT22;56475;52.114;5.480;2022-08-04T13:07:03;35.90;32.90
69331;DHT22;56475;52.114;5.480;2022-08-04T13:09:33;36.20;33.30
69331;DHT22;56475;52.114;5.480;2022-08-04T13:12:12;36.40;33.00
69331;DHT22;56475;52.114;5.480;2022-08-04T13:14:41;36.50;32.60
69331;DHT22;56475;52.114;5.480;2022-08-04T13:17:12;36.50;31.90
69331;DHT22;56475;52.114;5.480;2022-08-04T13:19:45;36.30;32.00
69331;DHT22;56475;52.114;5.480;2022-08-04T13:22:28;36.00;32.30
69331;DHT22;56475;52.114;5.480;2022-08-04T13:24:57;35.70;33.10
69331;DHT22;56475;52.114;5.480;2022-08-04T13:27:45;35.80;32.10
69331;DHT22;56475;52.114;5.480;2022-08-04T13:30:21;35.80;33.30
69331;DHT22;56475;52.114;5.480;2022-08-04T13:32:58;35.80;32.70
69331;DHT22;56475;52.114;5.480;2022-08-04T13:35:26;35.80;33.10
69331;DHT22;56475;52.114;5.480;2022-08-04T13:38:16;35.90;32.90
69331;DHT22;56475;52.114;5.480;2022-08-04T13:40:43;36.00;33.10
69331;DHT22;56475;52.114;5.480;2022-08-04T13:43:24;36.30;32.50
69331;DHT22;56475;52.114;5.480;2022-08-04T13:46:21;36.60;32.20
69331;DHT22;56475;52.114;5.480;2022-08-04T13:48:55;36.70;32.00
69331;DHT22;56475;52.114;5.480;2022-08-04T13:52:08;36.50;32.50
69331;DHT22;56475;52.114;5.480;2022-08-04T13:54:42;36.30;32.10
69331;DHT22;56475;52.114;5.480;2022-08-04T13:57:16;36.00;32.30
69331;DHT22;56475;52.114;5.480;2022-08-04T13:59:50;35.90;32.50
69331;DHT22;56475;52.114;5.480;2022-08-04T14:02:51;36.00;32.30
69331;DHT22;56475;52.114;5.480;2022-08-04T14:05:29;36.10;32.20
69331;DHT22;56475;52.114;5.480;2022-08-04T14:08:24;35.90;32.00
69331;DHT22;56475;52.114;5.480;2022-08-04T14:10:55;35.70;32.10
69331;DHT22;56475;52.114;5.480;2022-08-04T14:13:31;35.50;33.00
69331;DHT22;56475;52.114;5.480;2022-08-04T14:16:15;35.20;33.40
69331;DHT22;56475;52.114;5.480;2022-08-04T14:18:43;34.70;33.80
69331;DHT22;56475;52.114;5.480;2022-08-04T14:21:15;34.30;34.00
69331;DHT22;56475;52.114;5.480;2022-08-04T14:23:46;33.80;33.90
69331;DHT22;56475;52.114;5.480;2022-08-04T14:26:24;33.20;34.90
69331;DHT22;56475;52.114;5.480;2022-08-04T14:29:16;32.70;35.90
69331;DHT22;56475;52.114;5.480;2022-08-04T14:32:05;32.40;36.50
69331;DHT22;56475;52.114;5.480;2022-08-04T14:34:42;32.00;36.90
69331;DHT22;56475;52.114;5.480;2022-08-04T14:37:14;31.70;37.80
69331;DHT22;56475;52.114;5.480;2022-08-04T14:39:47;31.50;38.70
69331;DHT22;56475;52.114;5.480;2022-08-04T14:42:43;31.30;39.00
69331;DHT22;56475;52.114;5.480;2022-08-04T14:45:33;31.10;39.10
69331;DHT22;56475;52.114;5.480;2022-08-04T14:48:09;31.10;39.90
69331;DHT22;56475;52.114;5.480;2022-08-04T14:50:44;31.20;39.80
69331;DHT22;56475;52.114;5.480;2022-08-04T14:53:20;31.50;39.30
69331;DHT22;56475;52.114;5.480;2022-08-04T14:56:02;31.60;38.50
69331;DHT22;56475;52.114;5.480;2022-08-04T14:58:32;31.70;40.70
69331;DHT22;56475;52.114;5.480;2022-08-04T15:01:07;31.90;38.10
69331;DHT22;56475;52.114;5.480;2022-08-04T15:03:40;31.90;37.60
69331;DHT22;56475;52.114;5.480;2022-08-04T15:06:20;31.90;37.50
69331;DHT22;56475;52.114;5.480;2022-08-04T15:08:51;31.70;37.30
69331;DHT22;56475;52.114;5.480;2022-08-04T15:11:19;31.70;37.50
69331;DHT22;56475;52.114;5.480;2022-08-04T15:13:51;31.60;37.40
69331;DHT22;56475;52.114;5.480;2022-08-04T15:16:19;31.40;38.10
69331;DHT22;56475;52.114;5.480;2022-08-04T15:18:46;31.30;38.80
69331;DHT22;56475;52.114;5.480;2022-08-04T15:21:16;31.20;39.00
69331;DHT22;56475;52.114;5.480;2022-08-04T15:23:43;31.10;39.30
69331;DHT22;56475;52.114;5.480;2022-08-04T15:26:18;31.20;39.40
69331;DHT22;56475;52.114;5.480;2022-08-04T15:28:52;31.20;38.80
69331;DHT22;56475;52.114;5.480;2022-08-04T15:31:21;31.20;38.90
69331;DHT22;56475;52.114;5.480;2022-08-04T15:34:09;31.20;39.00
69331;DHT22;56475;52.114;5.480;2022-08-04T15:36:43;31.30;38.40
69331;DHT22;56475;52.114;5.480;2022-08-04T15:42:22;31.40;37.90
69331;DHT22;56475;52.114;5.480;2022-08-04T15:45:22;31.30;38.00
69331;DHT22;56475;52.114;5.480;2022-08-04T15:53:28;30.70;38.50
69331;DHT22;56475;52.114;5.480;2022-08-04T15:58:53;30.20;39.10
69331;DHT22;56475;52.114;5.480;2022-08-04T16:01:21;30.00;39.90
69331;DHT22;56475;52.114;5.480;2022-08-04T16:03:49;30.10;39.90
69331;DHT22;56475;52.114;5.480;2022-08-04T16:09:03;30.90;38.50
69331;DHT22;56475;52.114;5.480;2022-08-04T16:14:09;31.50;36.80
69331;DHT22;56475;52.114;5.480;2022-08-04T16:19:13;31.80;35.60
69331;DHT22;56475;52.114;5.480;2022-08-04T16:21:52;32.10;35.10
69331;DHT22;56475;52.114;5.480;2022-08-04T16:24:21;32.10;35.30
69331;DHT22;56475;52.114;5.480;2022-08-04T16:26:55;32.20;35.00
69331;DHT22;56475;52.114;5.480;2022-08-04T16:34:45;32.40;34.60
69331;DHT22;56475;52.114;5.480;2022-08-04T16:37:23;32.40;34.30
69331;DHT22;56475;52.114;5.480;2022-08-04T16:43:06;32.50;34.90
69331;DHT22;56475;52.114;5.480;2022-08-04T16:45:57;32.40;34.50
69331;DHT22;56475;52.114;5.480;2022-08-04T16:48:30;32.30;34.60
69331;DHT22;56475;52.114;5.480;2022-08-04T16:53:40;31.90;34.60
69331;DHT22;56475;52.114;5.480;2022-08-04T16:56:32;31.50;35.00
69331;DHT22;56475;52.114;5.480;2022-08-04T16:59:08;31.20;36.20
69331;DHT22;56475;52.114;5.480;2022-08-04T17:01:37;31.10;36.30
69331;DHT22;56475;52.114;5.480;2022-08-04T17:04:10;31.00;36.40
69331;DHT22;56475;52.114;5.480;2022-08-04T17:06:39;31.00;36.30
69331;DHT22;56475;52.114;5.480;2022-08-04T17:09:13;30.90;36.50
69331;DHT22;56475;52.114;5.480;2022-08-04T17:11:42;30.80;36.30
69331;DHT22;56475;52.114;5.480;2022-08-04T17:14:10;30.80;36.40
69331;DHT22;56475;52.114;5.480;2022-08-04T17:16:40;30.70;36.50
69331;DHT22;56475;52.114;5.480;2022-08-04T17:19:08;30.70;36.20
69331;DHT22;56475;52.114;5.480;2022-08-04T17:22:00;30.60;36.80
69331;DHT22;56475;52.114;5.480;2022-08-04T17:24:37;30.40;36.50
69331;DHT22;56475;52.114;5.480;2022-08-04T17:27:06;30.30;36.50
69331;DHT22;56475;52.114;5.480;2022-08-04T17:29:54;30.00;36.90
69331;DHT22;56475;52.114;5.480;2022-08-04T17:32:21;29.70;37.70
69331;DHT22;56475;52.114;5.480;2022-08-04T17:34:54;29.60;38.50
69331;DHT22;56475;52.114;5.480;2022-08-04T17:37:23;29.50;38.40
69331;DHT22;56475;52.114;5.480;2022-08-04T17:40:15;29.40;38.20
69331;DHT22;56475;52.114;5.480;2022-08-04T17:43:04;29.40;38.40
69331;DHT22;56475;52.114;5.480;2022-08-04T17:46:14;29.40;38.20
69331;DHT22;56475;52.114;5.480;2022-08-04T17:54:34;28.80;40.10
69331;DHT22;56475;52.114;5.480;2022-08-04T17:57:19;28.70;39.00
69331;DHT22;56475;52.114;5.480;2022-08-04T17:59:55;28.50;39.60
69331;DHT22;56475;52.114;5.480;2022-08-04T18:02:31;28.40;39.80
69331;DHT22;56475;52.114;5.480;2022-08-04T18:05:02;28.30;40.10
69331;DHT22;56475;52.114;5.480;2022-08-04T18:07:41;28.30;40.00
69331;DHT22;56475;52.114;5.480;2022-08-04T18:10:43;28.20;40.00
69331;DHT22;56475;52.114;5.480;2022-08-04T18:13:26;28.00;40.30
69331;DHT22;56475;52.114;5.480;2022-08-04T18:16:03;27.50;40.90
69331;DHT22;56475;52.114;5.480;2022-08-04T18:18:31;27.20;41.40
69331;DHT22;56475;52.114;5.480;2022-08-04T18:20:58;26.90;42.10
69331;DHT22;56475;52.114;5.480;2022-08-04T18:23:30;26.60;42.50
69331;DHT22;56475;52.114;5.480;2022-08-04T18:25:59;26.20;43.10
69331;DHT22;56475;52.114;5.480;2022-08-04T18:28:29;25.90;44.10
69331;DHT22;56475;52.114;5.480;2022-08-04T18:31:00;25.70;44.70
69331;DHT22;56475;52.114;5.480;2022-08-04T18:33:27;25.50;45.20
69331;DHT22;56475;52.114;5.480;2022-08-04T18:36:09;25.30;45.80
69331;DHT22;56475;52.114;5.480;2022-08-04T18:38:57;25.20;46.50
69331;DHT22;56475;52.114;5.480;2022-08-04T18:41:39;24.90;47.10
69331;DHT22;56475;52.114;5.480;2022-08-04T18:44:26;24.80;47.60
69331;DHT22;56475;52.114;5.480;2022-08-04T18:46:56;24.60;47.90
69331;DHT22;56475;52.114;5.480;2022-08-04T18:49:43;24.50;48.60
69331;DHT22;56475;52.114;5.480;2022-08-04T18:52:30;24.30;48.90
69331;DHT22;56475;52.114;5.480;2022-08-04T18:54:59;24.10;49.10
69331;DHT22;56475;52.114;5.480;2022-08-04T18:57:28;24.00;50.00
69331;DHT22;56475;52.114;5.480;2022-08-04T19:00:16;23.90;51.10
69331;DHT22;56475;52.114;5.480;2022-08-04T19:02:46;23.80;50.40
69331;DHT22;56475;52.114;5.480;2022-08-04T19:05:13;23.70;50.80
69331;DHT22;56475;52.114;5.480;2022-08-04T19:08:00;23.60;51.20
69331;DHT22;56475;52.114;5.480;2022-08-04T19:10:47;23.50;51.30
69331;DHT22;56475;52.114;5.480;2022-08-04T19:13:20;23.40;51.50
69331;DHT22;56475;52.114;5.480;2022-08-04T19:15:52;23.30;51.80
69331;DHT22;56475;52.114;5.480;2022-08-04T19:18:24;23.20;52.20
69331;DHT22;56475;52.114;5.480;2022-08-04T19:20:53;23.10;52.70
69331;DHT22;56475;52.114;5.480;2022-08-04T19:23:21;23.00;52.90
69331;DHT22;56475;52.114;5.480;2022-08-04T19:26:08;22.90;53.10
69331;DHT22;56475;52.114;5.480;2022-08-04T19:28:53;22.90;53.40
69331;DHT22;56475;52.114;5.480;2022-08-04T19:31:21;22.80;53.80
69331;DHT22;56475;52.114;5.480;2022-08-04T19:34:08;22.80;54.30
69331;DHT22;56475;52.114;5.480;2022-08-04T19:36:35;22.70;54.60
69331;DHT22;56475;52.114;5.480;2022-08-04T19:39:07;22.50;54.90
69331;DHT22;56475;52.114;5.480;2022-08-04T19:41:37;22.50;55.60
69331;DHT22;56475;52.114;5.480;2022-08-04T19:44:25;22.40;55.90
69331;DHT22;56475;52.114;5.480;2022-08-04T19:46:57;22.40;56.40
69331;DHT22;56475;52.114;5.480;2022-08-04T19:49:45;22.40;56.70
69331;DHT22;56475;52.114;5.480;2022-08-04T19:52:32;22.20;56.80
69331;DHT22;56475;52.114;5.480;2022-08-04T19:55:03;22.10;57.30
69331;DHT22;56475;52.114;5.480;2022-08-04T19:57:37;22.20;57.60
69331;DHT22;56475;52.114;5.480;2022-08-04T20:00:13;22.10;57.80
69331;DHT22;56475;52.114;5.480;2022-08-04T20:02:40;22.10;58.00
69331;DHT22;56475;52.114;5.480;2022-08-04T20:05:08;22.10;58.20
69331;DHT22;56475;52.114;5.480;2022-08-04T20:07:35;22.00;58.40
69331;DHT22;56475;52.114;5.480;2022-08-04T20:10:05;22.10;58.30
69331;DHT22;56475;52.114;5.480;2022-08-04T20:12:33;22.10;58.30
69331;DHT22;56475;52.114;5.480;2022-08-04T20:15:08;22.10;58.60
69331;DHT22;56475;52.114;5.480;2022-08-04T20:17:41;22.00;58.60
69331;DHT22;56475;52.114;5.480;2022-08-04T20:20:28;22.00;58.70
69331;DHT22;56475;52.114;5.480;2022-08-04T20:22:55;21.90;59.20
69331;DHT22;56475;52.114;5.480;2022-08-04T20:25:23;21.80;59.20
69331;DHT22;56475;52.114;5.480;2022-08-04T20:28:04;21.80;59.30
69331;DHT22;56475;52.114;5.480;2022-08-04T20:30:31;21.70;59.80
69331;DHT22;56475;52.114;5.480;2022-08-04T20:32:59;21.70;59.90
69331;DHT22;56475;52.114;5.480;2022-08-04T20:35:32;21.70;60.10
69331;DHT22;56475;52.114;5.480;2022-08-04T20:38:19;21.70;60.50
69331;DHT22;56475;52.114;5.480;2022-08-04T20:40:59;21.60;60.60
69331;DHT22;56475;52.114;5.480;2022-08-04T20:43:27;21.60;61.00
69331;DHT22;56475;52.114;5.480;2022-08-04T20:45:57;21.60;61.70
69331;DHT22;56475;52.114;5.480;2022-08-04T20:48:29;21.50;62.00
69331;DHT22;56475;52.114;5.480;2022-08-04T20:50:59;21.50;63.10
69331;DHT22;56475;52.114;5.480;2022-08-04T20:53:26;21.40;63.00
69331;DHT22;56475;52.114;5.480;2022-08-04T20:56:14;21.40;63.60
69331;DHT22;56475;52.114;5.480;2022-08-04T20:58:58;21.40;63.80
69331;DHT22;56475;52.114;5.480;2022-08-04T21:01:29;21.40;64.30
69331;DHT22;56475;52.114;5.480;2022-08-04T21:03:57;21.30;64.40
69331;DHT22;56475;52.114;5.480;2022-08-04T21:06:53;21.30;65.30
69331;DHT22;56475;52.114;5.480;2022-08-04T21:09:20;21.30;65.50
69331;DHT22;56475;52.114;5.480;2022-08-04T21:12:05;21.20;65.40
69331;DHT22;56475;52.114;5.480;2022-08-04T21:14:33;21.30;65.50
69331;DHT22;56475;52.114;5.480;2022-08-04T21:17:02;21.30;65.90
69331;DHT22;56475;52.114;5.480;2022-08-04T21:19:32;21.30;66.40